createdAt,value
2018-05-25T00:00:08.229Z,4.20
2018-05-25T00:02:36.506Z,4.83
2018-05-25T00:05:04.793Z,4.67
2018-05-25T00:07:33.075Z,5.00
2018-05-25T00:10:01.881Z,5.43
2018-05-25T00:12:30.561Z,4.43
2018-05-25T00:14:59.228Z,4.73
2018-05-25T00:17:27.543Z,5.00
2018-05-25T00:19:55.820Z,5.00
2018-05-25T00:22:24.093Z,5.03
2018-05-25T00:24:52.416Z,4.40
2018-05-25T00:27:20.792Z,4.67
2018-05-25T00:29:49.109Z,4.80
2018-05-25T00:32:17.814Z,4.60
2018-05-25T00:34:46.580Z,4.50
2018-05-25T00:37:14.870Z,5.07
2018-05-25T00:39:43.576Z,4.30
2018-05-25T00:42:11.865Z,4.33
2018-05-25T00:44:40.137Z,4.30
2018-05-25T00:47:08.472Z,4.53
2018-05-25T00:49:37.156Z,4.80
2018-05-25T00:52:05.430Z,4.20
2018-05-25T00:54:33.730Z,4.97
2018-05-25T00:57:02.682Z,4.40
2018-05-25T00:59:30.993Z,4.93
2018-05-25T01:02:02.129Z,4.67
2018-05-25T01:04:31.782Z,5.13
2018-05-25T01:07:00.143Z,4.50
2018-05-25T01:09:28.450Z,4.63
2018-05-25T01:11:56.993Z,4.63
2018-05-25T01:14:25.277Z,4.70
2018-05-25T01:16:53.627Z,4.53
2018-05-25T01:19:22.314Z,4.33
2018-05-25T01:21:50.654Z,5.20
2018-05-25T01:24:18.963Z,4.13
2018-05-25T01:26:47.631Z,5.20
2018-05-25T01:29:15.906Z,4.67
2018-05-25T01:31:44.214Z,4.53
2018-05-25T01:34:13.129Z,4.30
2018-05-25T01:36:41.411Z,4.80
2018-05-25T01:39:09.718Z,4.30
2018-05-25T01:41:38.089Z,4.30
2018-05-25T01:44:06.399Z,5.10
2018-05-25T01:46:35.129Z,4.97
2018-05-25T01:49:03.414Z,4.60
2018-05-25T01:51:31.786Z,4.63
2018-05-25T01:54:00.108Z,5.07
2018-05-25T01:56:28.378Z,4.60
2018-05-25T01:58:56.958Z,4.70
2018-05-25T02:01:25.542Z,4.70
2018-05-25T02:03:54.125Z,5.13
2018-05-25T02:06:22.828Z,4.43
2018-05-25T02:08:51.588Z,4.73
2018-05-25T02:11:19.874Z,4.50
2018-05-25T02:13:48.200Z,4.60
2018-05-25T02:16:16.516Z,4.50
2018-05-25T02:18:44.792Z,4.27
2018-05-25T02:21:13.080Z,4.50
2018-05-25T02:23:42.076Z,4.93
2018-05-25T02:26:10.354Z,4.70
2018-05-25T02:28:38.646Z,4.97
2018-05-25T02:31:07.321Z,4.20
2018-05-25T02:33:36.043Z,5.13
2018-05-25T02:36:04.319Z,4.73
2018-05-25T02:38:32.602Z,4.63
2018-05-25T02:41:00.889Z,4.43
2018-05-25T02:43:29.210Z,4.37
2018-05-25T02:45:57.499Z,4.63
2018-05-25T02:48:26.401Z,4.73
2018-05-25T02:50:55.166Z,4.77
2018-05-25T02:53:23.485Z,4.20
2018-05-25T02:55:51.761Z,4.67
2018-05-25T02:58:20.039Z,4.57
2018-05-25T03:00:48.368Z,4.70
2018-05-25T03:03:16.633Z,4.07
2018-05-25T03:05:44.950Z,4.63
2018-05-25T03:08:13.701Z,4.30
2018-05-25T03:10:42.049Z,4.53
2018-05-25T03:13:10.400Z,4.20
2018-05-25T03:15:38.682Z,4.40
2018-05-25T03:18:06.968Z,4.20
2018-05-25T03:20:35.378Z,4.47
2018-05-25T03:23:03.666Z,4.40
2018-05-25T03:25:31.950Z,4.73
2018-05-25T03:28:00.269Z,4.67
2018-05-25T03:30:28.566Z,4.90
2018-05-25T03:32:57.104Z,4.67
2018-05-25T03:35:26.073Z,5.07
2018-05-25T03:37:54.361Z,4.90
2018-05-25T03:40:22.660Z,4.40
2018-05-25T03:42:51.326Z,4.40
2018-05-25T03:45:21.023Z,5.07
2018-05-25T03:47:49.335Z,4.43
2018-05-25T03:50:17.633Z,4.23
2018-05-25T03:52:46.065Z,4.60
2018-05-25T03:55:14.367Z,4.70
2018-05-25T03:57:42.649Z,4.57
2018-05-25T04:00:22.915Z,4.20
2018-05-25T04:02:51.194Z,4.20
2018-05-25T04:05:19.485Z,4.17
2018-05-25T04:07:47.771Z,4.50
2018-05-25T04:10:16.062Z,4.40
2018-05-25T04:12:44.339Z,4.20
2018-05-25T04:15:13.040Z,4.63
2018-05-25T04:17:41.320Z,4.90
2018-05-25T04:20:09.599Z,4.40
2018-05-25T04:22:37.878Z,4.67
2018-05-25T04:25:06.573Z,4.10
2018-05-25T04:27:35.291Z,4.23
2018-05-25T04:30:03.578Z,4.47
2018-05-25T04:32:31.858Z,4.10
2018-05-25T04:35:00.173Z,4.37
2018-05-25T04:37:28.446Z,4.47
2018-05-25T04:39:56.801Z,4.37
2018-05-25T04:42:25.092Z,4.37
2018-05-25T04:44:53.370Z,4.20
2018-05-25T04:47:21.672Z,5.00
2018-05-25T04:49:50.865Z,4.50
2018-05-25T04:52:19.311Z,4.70
2018-05-25T04:54:48.850Z,4.57
2018-05-25T04:57:18.237Z,4.50
2018-05-25T04:59:46.924Z,5.10
2018-05-25T05:02:15.271Z,4.37
2018-05-25T05:04:43.571Z,4.23
2018-05-25T05:07:11.856Z,4.43
2018-05-25T05:09:40.158Z,4.40
2018-05-25T05:12:08.496Z,4.93
2018-05-25T05:14:36.780Z,4.30
2018-05-25T05:17:05.595Z,4.10
2018-05-25T05:19:33.874Z,4.60
2018-05-25T05:22:02.244Z,4.50
2018-05-25T05:24:31.213Z,4.57
2018-05-25T05:26:59.623Z,4.30
2018-05-25T05:29:27.970Z,4.27
2018-05-25T05:31:56.590Z,4.20
2018-05-25T05:34:24.889Z,4.23
2018-05-25T05:36:53.173Z,4.53
2018-05-25T05:39:21.795Z,4.23
2018-05-25T05:41:50.156Z,4.73
2018-05-25T05:44:18.863Z,4.27
2018-05-25T05:46:47.161Z,4.50
2018-05-25T05:49:15.843Z,4.00
2018-05-25T05:51:44.510Z,4.10
2018-05-25T05:54:12.862Z,4.27
2018-05-25T05:56:41.404Z,3.93
2018-05-25T05:59:09.720Z,4.90
2018-05-25T06:01:37.998Z,4.30
2018-05-25T06:04:06.374Z,4.43
2018-05-25T06:06:34.977Z,4.50
2018-05-25T06:09:03.563Z,4.30
2018-05-25T06:11:31.844Z,4.10
2018-05-25T06:14:00.134Z,4.40
2018-05-25T06:16:28.810Z,4.40
2018-05-25T06:18:57.684Z,4.07
2018-05-25T06:21:26.370Z,4.40
2018-05-25T06:23:55.092Z,4.57
2018-05-25T06:26:23.570Z,4.07
2018-05-25T06:28:52.231Z,4.10
2018-05-25T06:31:20.519Z,5.00
2018-05-25T06:33:49.200Z,4.70
2018-05-25T06:36:17.482Z,4.73
2018-05-25T06:38:46.215Z,4.30
2018-05-25T06:41:14.569Z,4.17
2018-05-25T06:43:42.844Z,4.47
2018-05-25T06:46:11.631Z,3.93
2018-05-25T06:48:39.911Z,4.17
2018-05-25T06:51:08.217Z,4.40
2018-05-25T06:53:36.568Z,4.47
2018-05-25T06:56:04.994Z,4.33
2018-05-25T06:58:33.293Z,4.50
2018-05-25T07:01:01.566Z,4.30
2018-05-25T07:03:29.905Z,4.50
2018-05-25T07:05:58.214Z,4.33
2018-05-25T07:08:26.491Z,4.37
2018-05-25T07:10:54.778Z,4.30
2018-05-25T07:13:23.228Z,4.90
2018-05-25T07:15:51.826Z,4.60
2018-05-25T07:18:20.151Z,4.83
2018-05-25T07:20:48.426Z,4.53
2018-05-25T07:23:16.721Z,4.57
2018-05-25T07:25:45.122Z,4.73
2018-05-25T07:28:13.498Z,5.00
2018-05-25T07:30:41.778Z,4.60
2018-05-25T07:33:10.099Z,4.73
2018-05-25T07:35:38.803Z,4.70
2018-05-25T07:38:07.114Z,4.00
2018-05-25T07:40:35.409Z,4.50
2018-05-25T07:43:03.696Z,4.60
2018-05-25T07:45:31.993Z,4.27
2018-05-25T07:48:00.324Z,4.33
2018-05-25T07:50:29.629Z,4.57
2018-05-25T07:52:57.902Z,4.50
2018-05-25T07:55:26.254Z,4.43
2018-05-25T07:57:54.562Z,4.40
2018-05-25T08:00:22.911Z,4.33
2018-05-25T08:02:51.455Z,3.87
2018-05-25T08:05:20.357Z,3.70
2018-05-25T08:07:48.844Z,3.93
2018-05-25T08:10:18.030Z,3.47
2018-05-25T08:12:46.670Z,4.00
2018-05-25T08:15:15.302Z,3.70
2018-05-25T08:17:44.581Z,3.53
2018-05-25T08:20:12.990Z,3.50
2018-05-25T08:22:41.378Z,3.03
2018-05-25T08:25:09.789Z,3.13
2018-05-25T08:27:38.164Z,3.40
2018-05-25T08:30:06.441Z,3.30
2018-05-25T08:32:34.742Z,3.60
2018-05-25T08:35:03.327Z,3.60
2018-05-25T08:37:32.052Z,3.80
2018-05-25T08:40:00.331Z,3.87
2018-05-25T08:42:28.663Z,3.70
2018-05-25T08:44:57.902Z,3.70
2018-05-25T08:47:26.206Z,3.80
2018-05-25T08:49:54.494Z,4.50
2018-05-25T08:52:23.204Z,3.77
2018-05-25T08:54:51.560Z,3.97
2018-05-25T08:57:19.938Z,3.70
2018-05-25T08:59:48.421Z,4.20
2018-05-25T09:02:16.708Z,3.77
2018-05-25T09:04:45.434Z,4.10
2018-05-25T09:07:13.750Z,4.17
2018-05-25T09:09:42.046Z,3.80
2018-05-25T09:12:10.369Z,4.17
2018-05-25T09:14:38.713Z,4.03
2018-05-25T09:17:07.009Z,3.83
2018-05-25T09:19:35.406Z,3.73
2018-05-25T09:22:03.909Z,4.07
2018-05-25T09:24:32.521Z,3.73
2018-05-25T09:27:00.885Z,3.80
2018-05-25T09:29:29.203Z,3.63
2018-05-25T09:31:57.762Z,4.20
2018-05-25T09:34:26.126Z,3.70
2018-05-25T09:36:54.503Z,3.57
2018-05-25T09:39:22.818Z,3.70
2018-05-25T09:41:51.513Z,3.57
2018-05-25T09:44:20.222Z,3.33
2018-05-25T09:46:48.513Z,3.50
2018-05-25T09:49:16.860Z,3.80
2018-05-25T09:51:45.158Z,3.60
2018-05-25T09:54:13.459Z,3.80
2018-05-25T09:56:49.474Z,3.60
2018-05-25T09:59:17.765Z,3.80
2018-05-25T10:01:46.292Z,3.80
2018-05-25T10:04:14.620Z,3.53
2018-05-25T10:06:43.153Z,3.90
2018-05-25T10:09:11.832Z,3.10
2018-05-25T10:11:40.147Z,3.40
2018-05-25T10:14:08.490Z,3.20
2018-05-25T10:16:36.863Z,3.57
2018-05-25T10:19:05.168Z,3.47
2018-05-25T10:21:33.838Z,3.30
2018-05-25T10:24:02.303Z,3.50
2018-05-25T10:26:30.573Z,3.10
2018-05-25T10:28:59.173Z,3.50
2018-05-25T10:31:27.488Z,3.10
2018-05-25T10:33:55.760Z,3.47
2018-05-25T10:36:24.088Z,3.63
2018-05-25T10:38:52.393Z,3.50
2018-05-25T10:41:20.738Z,3.50
2018-05-25T10:43:49.118Z,3.30
2018-05-25T10:46:17.557Z,3.60
2018-05-25T10:48:45.879Z,3.30
2018-05-25T10:51:14.150Z,3.10
2018-05-25T10:53:42.466Z,3.53
2018-05-25T10:56:11.152Z,3.47
2018-05-25T10:58:39.819Z,3.30
2018-05-25T11:01:08.106Z,3.30
2018-05-25T11:03:36.381Z,3.10
2018-05-25T11:06:04.687Z,3.10
2018-05-25T11:08:32.962Z,3.20
2018-05-25T11:11:01.280Z,3.70
2018-05-25T11:13:29.877Z,3.10
2018-05-25T11:15:58.178Z,3.17
2018-05-25T11:18:26.854Z,2.90
2018-05-25T11:20:55.187Z,3.50
2018-05-25T11:23:23.486Z,3.07
2018-05-25T11:25:51.778Z,2.93
2018-05-25T11:28:20.134Z,3.20
2018-05-25T11:30:48.421Z,2.97
2018-05-25T11:33:16.694Z,3.00
2018-05-25T11:35:45.013Z,3.10
2018-05-25T11:38:13.693Z,3.30
2018-05-25T11:40:42.671Z,3.07
2018-05-25T11:43:11.120Z,3.00
2018-05-25T11:45:39.397Z,3.03
2018-05-25T11:48:07.689Z,3.07
2018-05-25T11:50:36.221Z,2.70
2018-05-25T11:53:04.549Z,2.53
2018-05-25T11:55:32.796Z,2.90
2018-05-25T11:58:01.112Z,2.60
2018-05-25T12:00:29.682Z,2.80
2018-05-25T12:02:57.980Z,3.13
2018-05-25T12:05:26.666Z,3.03
2018-05-25T12:07:55.352Z,3.00
2018-05-25T12:10:24.064Z,3.00
2018-05-25T12:12:52.348Z,3.00
2018-05-25T12:15:20.666Z,2.77
2018-05-25T12:17:48.953Z,2.90
2018-05-25T12:20:17.672Z,3.13
2018-05-25T12:22:46.213Z,3.10
2018-05-25T12:25:14.518Z,2.80
2018-05-25T12:27:43.485Z,3.17
2018-05-25T12:30:11.853Z,2.90
2018-05-25T12:32:40.226Z,3.00
2018-05-25T12:35:08.581Z,2.90
2018-05-25T12:37:37.217Z,2.80
2018-05-25T12:40:05.502Z,3.20
2018-05-25T12:42:34.193Z,2.83
2018-05-25T12:45:14.558Z,3.93
2018-05-25T12:47:43.258Z,3.47
2018-05-25T12:50:11.538Z,3.40
2018-05-25T12:52:39.857Z,3.30
2018-05-25T12:55:08.126Z,3.13
2018-05-25T12:57:36.432Z,3.50
2018-05-25T13:00:05.129Z,2.97
2018-05-25T13:02:33.811Z,3.10
2018-05-25T13:05:02.187Z,2.50
2018-05-25T13:07:30.749Z,3.40
2018-05-25T13:09:59.334Z,2.93
2018-05-25T13:12:27.687Z,3.20
2018-05-25T13:14:56.299Z,3.47
2018-05-25T13:17:24.591Z,2.90
2018-05-25T13:19:53.169Z,3.00
2018-05-25T13:22:22.152Z,3.03
2018-05-25T13:24:50.443Z,3.23
2018-05-25T13:27:19.362Z,3.33
2018-05-25T13:29:47.998Z,3.30
2018-05-25T13:32:16.352Z,3.47
2018-05-25T13:34:44.652Z,2.97
2018-05-25T13:37:12.978Z,3.10
2018-05-25T13:39:41.258Z,3.20
2018-05-25T13:42:09.537Z,3.47
2018-05-25T13:44:37.830Z,3.10
2018-05-25T13:47:06.342Z,3.30
2018-05-25T13:49:34.754Z,2.83
2018-05-25T13:52:03.431Z,3.23
2018-05-25T13:54:32.158Z,3.07
2018-05-25T13:57:00.446Z,3.43
2018-05-25T13:59:28.734Z,3.30
2018-05-25T14:01:57.109Z,3.43
2018-05-25T14:04:25.379Z,3.90
2018-05-25T14:06:53.695Z,6.17
2018-05-25T14:09:22.382Z,4.50
2018-05-25T14:11:51.091Z,3.40
2018-05-25T14:14:19.388Z,3.70
2018-05-25T14:19:22.816Z,3.50
2018-05-25T14:21:51.767Z,3.30
2018-05-25T14:24:20.533Z,3.10
2018-05-25T14:26:49.233Z,2.97
2018-05-25T14:29:17.897Z,3.23
2018-05-25T14:31:46.169Z,3.20
2018-05-25T14:34:14.754Z,3.07
2018-05-25T14:36:43.023Z,3.70
2018-05-25T14:39:11.331Z,3.70
2018-05-25T14:41:40.303Z,3.50
2018-05-25T14:44:08.883Z,3.90
2018-05-25T14:46:37.192Z,3.57
2018-05-25T14:49:05.488Z,3.40
2018-05-25T14:51:33.780Z,3.57
2018-05-25T14:54:02.215Z,3.33
2018-05-25T14:56:30.921Z,3.23
2018-05-25T14:58:59.280Z,3.33
2018-05-25T15:01:27.981Z,3.23
2018-05-25T15:03:56.468Z,3.20
2018-05-25T15:06:25.159Z,3.03
2018-05-25T15:08:53.814Z,3.63
2018-05-25T15:11:22.202Z,3.33
2018-05-25T15:13:50.501Z,3.80
2018-05-25T15:16:18.806Z,3.33
2018-05-25T15:18:47.115Z,3.40
2018-05-25T15:21:15.563Z,3.50
2018-05-25T15:23:43.907Z,3.20
2018-05-25T15:26:12.221Z,3.33
2018-05-25T15:28:41.106Z,3.60
2018-05-25T15:31:09.402Z,3.70
2018-05-25T15:33:38.001Z,3.13
2018-05-25T15:36:06.716Z,3.37
2018-05-25T15:38:35.379Z,3.30
2018-05-25T15:41:04.066Z,3.80
2018-05-25T15:43:32.745Z,3.30
2018-05-25T15:46:01.466Z,3.53
2018-05-25T15:48:29.776Z,4.63
2018-05-25T15:50:58.062Z,3.80
2018-05-25T15:53:26.362Z,3.93
2018-05-25T15:55:54.675Z,3.70
2018-05-25T15:58:22.967Z,3.80
2018-05-25T16:00:51.404Z,3.30
2018-05-25T16:03:19.768Z,3.67
2018-05-25T16:05:48.195Z,3.13
2018-05-25T16:08:16.498Z,3.70
2018-05-25T16:10:44.827Z,3.70
2018-05-25T16:13:13.106Z,3.63
2018-05-25T16:15:41.423Z,4.30
2018-05-25T16:18:11.030Z,5.00
2018-05-25T16:20:39.741Z,4.40
2018-05-25T16:23:08.484Z,4.27
2018-05-25T16:25:36.894Z,3.97
2018-05-25T16:28:05.223Z,3.67
2018-05-25T16:30:33.749Z,3.50
2018-05-25T16:33:02.133Z,3.90
2018-05-25T16:35:30.866Z,4.07
2018-05-25T16:37:59.166Z,3.50
2018-05-25T16:40:27.595Z,4.23
2018-05-25T16:42:56.017Z,3.60
2018-05-25T16:45:24.421Z,3.70
2018-05-25T16:47:52.727Z,3.57
2018-05-25T16:50:21.051Z,4.00
2018-05-25T16:52:49.407Z,3.87
2018-05-25T16:55:18.152Z,3.90
2018-05-25T16:57:46.993Z,3.70
2018-05-25T17:00:15.277Z,3.77
2018-05-25T17:02:43.561Z,3.80
2018-05-25T17:05:11.964Z,3.80
2018-05-25T17:07:40.274Z,3.80
2018-05-25T17:10:08.942Z,3.73
2018-05-25T17:12:37.712Z,3.80
2018-05-25T17:15:06.026Z,3.63
2018-05-25T17:17:34.709Z,4.13
2018-05-25T17:20:03.444Z,3.63
2018-05-25T17:22:31.814Z,3.67
2018-05-25T17:25:00.199Z,3.53
2018-05-25T17:27:28.928Z,3.30
2018-05-25T17:29:57.221Z,3.20
2018-05-25T17:32:26.119Z,3.20
2018-05-25T17:34:54.454Z,3.13
2018-05-25T17:37:22.835Z,3.03
2018-05-25T17:39:51.128Z,2.90
2018-05-25T17:42:19.450Z,3.10
2018-05-25T17:44:47.740Z,3.10
2018-05-25T17:47:16.177Z,2.80
2018-05-25T17:49:44.958Z,3.10
2018-05-25T17:52:13.314Z,2.80
2018-05-25T17:54:41.598Z,3.20
2018-05-25T17:57:09.917Z,2.93
2018-05-25T17:59:38.191Z,3.07
2018-05-25T18:02:06.550Z,2.93
2018-05-25T18:04:34.979Z,3.20
2018-05-25T18:07:03.260Z,3.07
2018-05-25T18:09:31.578Z,3.30
2018-05-25T18:11:59.901Z,3.20
2018-05-25T18:14:28.187Z,3.50
2018-05-25T18:16:56.475Z,3.13
2018-05-25T18:19:24.768Z,3.20
2018-05-25T18:21:53.041Z,3.43
2018-05-25T18:24:21.327Z,3.13
2018-05-25T18:26:50.574Z,3.50
2018-05-25T18:29:18.885Z,3.33
2018-05-25T18:31:47.267Z,3.23
2018-05-25T18:34:15.605Z,3.27
2018-05-25T18:36:43.906Z,3.83
2018-05-25T18:39:12.235Z,3.17
2018-05-25T18:41:41.177Z,3.43
2018-05-25T18:44:09.462Z,3.43
2018-05-25T18:46:37.843Z,3.20
2018-05-25T18:49:06.590Z,3.10
2018-05-25T18:51:34.877Z,3.20
2018-05-25T18:57:01.990Z,3.17
2018-05-25T18:59:30.291Z,2.97
2018-05-25T19:01:59.421Z,3.20
2018-05-25T19:04:28.143Z,3.10
2018-05-25T19:06:56.459Z,3.20
2018-05-25T19:09:24.882Z,3.13
2018-05-25T19:11:53.511Z,3.97
2018-05-25T19:14:22.183Z,3.00
2018-05-25T19:16:50.937Z,3.20
2018-05-25T19:19:19.476Z,3.20
2018-05-25T19:21:47.747Z,3.53
2018-05-25T19:24:16.177Z,3.30
2018-05-25T19:26:44.496Z,3.00
2018-05-25T19:29:12.798Z,3.20
2018-05-25T19:31:41.141Z,3.20
2018-05-25T19:34:09.818Z,3.40
2018-05-25T19:36:38.552Z,3.03
2018-05-25T19:39:06.883Z,3.47
2018-05-25T19:41:35.161Z,3.17
2018-05-25T19:44:03.866Z,3.10
2018-05-25T19:46:32.194Z,3.10
2018-05-25T19:49:00.496Z,3.03
2018-05-25T19:51:28.851Z,3.23
2018-05-25T19:53:57.242Z,3.57
2018-05-25T19:56:25.591Z,2.87
2018-05-25T19:58:53.988Z,2.87
2018-05-25T20:01:22.677Z,3.43
2018-05-25T20:03:50.953Z,3.00
2018-05-25T20:06:19.354Z,2.90
2018-05-25T20:08:47.664Z,2.83
2018-05-25T20:11:16.020Z,4.73
2018-05-25T20:13:45.142Z,2.87
2018-05-25T20:16:13.529Z,3.43
2018-05-25T20:18:41.852Z,3.00
2018-05-25T20:21:10.472Z,2.93
2018-05-25T20:23:38.887Z,2.80
2018-05-25T20:26:07.189Z,4.53
2018-05-25T20:28:36.483Z,2.63
2018-05-25T20:31:04.840Z,2.67
2018-05-25T20:33:33.134Z,2.90
2018-05-25T20:36:01.426Z,2.70
2018-05-25T20:38:29.813Z,3.33
2018-05-25T20:40:58.831Z,2.97
2018-05-25T20:43:27.183Z,3.03
2018-05-25T20:45:55.465Z,3.00
2018-05-25T20:48:23.856Z,3.37
2018-05-25T20:50:57.761Z,2.60
2018-05-25T20:53:26.709Z,3.13
2018-05-25T20:55:55.015Z,2.77
2018-05-25T20:58:23.372Z,3.60
2018-05-25T21:00:51.832Z,3.00
2018-05-25T21:03:20.137Z,3.07
2018-05-25T21:05:48.414Z,2.70
2018-05-25T21:08:16.782Z,3.00
2018-05-25T21:10:45.458Z,2.90
2018-05-25T21:13:13.818Z,2.90
2018-05-25T21:15:42.429Z,3.17
2018-05-25T21:18:10.777Z,2.80
2018-05-25T21:20:39.089Z,2.63
2018-05-25T21:23:07.427Z,2.80
2018-05-25T21:25:36.240Z,3.00
2018-05-25T21:28:04.514Z,2.90
2018-05-25T21:30:32.791Z,2.80
2018-05-25T21:33:01.257Z,3.13
2018-05-25T21:35:29.552Z,2.50
2018-05-25T21:37:58.014Z,2.70
2018-05-25T21:40:26.374Z,3.50
2018-05-25T21:42:54.677Z,2.70
2018-05-25T21:45:22.953Z,2.63
2018-05-25T21:47:51.261Z,3.03
2018-05-25T21:50:19.530Z,2.97
2018-05-25T21:52:47.805Z,3.43
2018-05-25T21:55:16.374Z,2.90
2018-05-25T21:57:44.680Z,3.00
2018-05-25T22:00:12.953Z,2.93
2018-05-25T22:02:42.142Z,3.67
2018-05-25T22:05:11.537Z,2.83
2018-05-25T22:07:40.006Z,2.77
2018-05-25T22:10:08.335Z,2.83
2018-05-25T22:12:37.008Z,3.10
2018-05-25T22:15:05.678Z,3.00
2018-05-25T22:17:34.006Z,3.30
2018-05-25T22:20:02.290Z,2.93
2018-05-25T22:22:30.587Z,3.00
2018-05-25T22:24:58.887Z,3.50
2018-05-25T22:27:27.178Z,3.80
2018-05-25T22:29:55.863Z,3.40
2018-05-25T22:32:24.595Z,3.47
2018-05-25T22:34:52.875Z,3.53
2018-05-25T22:37:21.234Z,3.50
2018-05-25T22:39:49.629Z,3.27
2018-05-25T22:42:29.862Z,3.03
2018-05-25T22:45:10.149Z,3.33
2018-05-25T22:47:50.325Z,3.37
2018-05-25T22:50:30.854Z,3.23
2018-05-25T22:56:03.509Z,3.13
2018-05-25T22:58:32.555Z,3.47
2018-05-25T23:01:01.193Z,3.00
2018-05-25T23:03:29.913Z,4.13
2018-05-25T23:05:58.547Z,3.70
2018-05-25T23:08:28.045Z,3.73
2018-05-25T23:10:57.545Z,4.10
2018-05-25T23:13:25.817Z,3.60
2018-05-25T23:15:54.258Z,4.33
2018-05-25T23:18:22.744Z,4.17
2018-05-25T23:20:51.773Z,3.60
2018-05-25T23:23:20.066Z,4.70
2018-05-25T23:25:48.345Z,4.73
2018-05-25T23:28:16.622Z,4.73
2018-05-25T23:30:44.902Z,4.80
2018-05-25T23:33:13.219Z,4.80
2018-05-25T23:35:41.764Z,4.50
2018-05-25T23:38:10.181Z,5.27
2018-05-25T23:40:38.486Z,5.00
2018-05-25T23:43:06.981Z,5.80
2018-05-25T23:45:35.264Z,5.30
2018-05-25T23:48:03.698Z,5.70
2018-05-25T23:50:32.011Z,6.00
2018-05-25T23:53:00.303Z,5.40
2018-05-25T23:55:28.616Z,5.13
2018-05-25T23:57:56.898Z,5.70
